Fort Collins, CO (80524)

1:58 PM MDT on July 07, 2015 (GMT -0600)
Hearthfire Drive | | Change Station
CLOSE
Current Station
Personal Weather Station
Location: Fort Collins, CO
Elevation: 5121 ft
Nearby Weather Stations

Elev 5121 ft 40.63 °N, 105.05 °W | Updated 6 seconds ago

Mostly Cloudy
Mostly Cloudy
68.5 °F
Feels Like 68.5 °F
N
0.4
Wind Variable Wind from NE
Gusts 2.5 mph

Today
High -- | Low -- °F
--% Chance of Precip.
Yesterday
High -- | Low -- °F
Precip. -- in
5:36 AM 8:33 PM
Waning Gibbous, 62% visible
Pressure 30.15 in
Visibility 3.0 miles
Clouds Few 4300 ft
Few 5500 ft
Dew Point 58 °F
Humidity 70%
Rainfall 0.13 in
Snow Depth Not available.
UV 2.0 out of 12
Pollen 4.60 out of 12
Air Quality Not available.
Flu Activity Not available.
METAR KFNL 071955Z AUTO 30003KT 3SM FEW043 FEW055 19/13 A3015 RMK AO1

More Conditions Fewer Conditions

Pressure 30.15 in
Visibility 3.0 miles
Clouds Few 4300 ft
Few 5500 ft
Dew Point 58 °F
Humidity 70%
Rainfall 0.13 in
Snow Depth Not available.
UV 2.0 out of 12
Pollen 4.60 out of 12
Air Quality Not available.
Flu Activity Not available.
METAR KFNL 071955Z AUTO 30003KT 3SM FEW043 FEW055 19/13 A3015 RMK AO1

More Conditions Fewer Conditions

10-Day Weather Forecast

×

Almanac

Astronomy

Jul. 07, 2015 Rise Set
Actual Time
Civil Twilight
Nautical Twilight
Astronomical Twilight
Moon
Length of Visible Light
Length of Day
Tomorrow will be .
, % of the Moon is Illuminated

Today's Extremes

State Highs State Lows

Community

WunderPhotos

Upload Photos

1,835,884 photos uploaded!

WunderBlogs® & News

Nearby

Air Quality

  Air Quality AQ Index Pollutant
Not available.

Snow Depth

Station Depth Elevation

Earthquake Activity

City Distance Mag. Time & Date
Minimum magnitude displayed is 2.5.

Coastal Water Temperatures

Place Temperature

Stations

Nearby Weather Stations

Station Location Temp. Windchill Dew Point Humidity Wind Precip. Elev Updated Type